createdAt,value
2022-10-18T00:00:17.574Z,0.00
2022-10-18T00:01:17.550Z,0.00
2022-10-18T00:02:17.577Z,0.00
2022-10-18T00:03:17.511Z,0.00
2022-10-18T00:04:17.491Z,0.00
2022-10-18T00:05:17.479Z,0.00
2022-10-18T00:06:17.474Z,0.00
2022-10-18T00:07:17.430Z,0.00
2022-10-18T00:08:17.413Z,0.00
2022-10-18T00:09:17.387Z,0.00
2022-10-18T00:10:17.368Z,0.00
2022-10-18T00:11:17.350Z,0.00
2022-10-18T00:12:17.332Z,0.00
2022-10-18T00:13:17.307Z,0.00
2022-10-18T00:14:17.289Z,0.00
2022-10-18T00:15:17.267Z,0.00
2022-10-18T00:16:17.296Z,0.00
2022-10-18T00:17:17.231Z,0.00
2022-10-18T00:18:17.215Z,0.00
2022-10-18T00:19:17.192Z,0.00
2022-10-18T00:20:17.169Z,0.00
2022-10-18T00:21:17.156Z,0.00
2022-10-18T00:22:17.139Z,0.00
2022-10-18T00:23:17.112Z,0.00
2022-10-18T00:24:17.100Z,0.00
2022-10-18T00:25:17.093Z,0.00
2022-10-18T00:26:17.062Z,0.00
2022-10-18T00:27:17.036Z,0.00
2022-10-18T00:28:17.014Z,0.00
2022-10-18T00:29:16.991Z,0.00
2022-10-18T00:30:16.976Z,0.00
2022-10-18T00:31:16.971Z,0.00
2022-10-18T00:32:16.942Z,0.00
2022-10-18T00:33:16.913Z,0.00
2022-10-18T00:34:16.902Z,0.00
2022-10-18T00:35:16.878Z,0.00
2022-10-18T00:36:16.884Z,0.00
2022-10-18T00:37:16.830Z,0.00
2022-10-18T00:38:16.814Z,0.00
2022-10-18T00:39:16.799Z,0.00
2022-10-18T00:40:16.778Z,0.00
2022-10-18T00:41:16.757Z,0.00
2022-10-18T00:42:16.743Z,0.00
2022-10-18T00:43:16.723Z,0.00
2022-10-18T00:44:16.698Z,0.00
2022-10-18T00:45:16.682Z,0.00
2022-10-18T00:46:16.675Z,0.00
2022-10-18T00:47:16.672Z,0.00
2022-10-18T00:48:16.623Z,0.00
2022-10-18T00:49:16.607Z,0.00
2022-10-18T00:50:16.578Z,0.00
2022-10-18T00:51:16.559Z,0.00
2022-10-18T00:52:16.557Z,0.00
2022-10-18T00:53:16.547Z,0.00
2022-10-18T00:54:16.508Z,0.00
2022-10-18T00:55:16.483Z,0.00
2022-10-18T00:56:16.488Z,0.00
2022-10-18T00:57:16.459Z,0.00
2022-10-18T00:58:16.435Z,0.00
2022-10-18T00:59:16.437Z,0.00
2022-10-18T01:00:16.400Z,0.00
2022-10-18T01:01:16.413Z,0.00
2022-10-18T01:02:16.352Z,0.00
2022-10-18T01:03:16.332Z,0.00
2022-10-18T01:04:16.565Z,0.00
2022-10-18T01:05:16.290Z,0.00
2022-10-18T01:06:16.269Z,0.00
2022-10-18T01:07:16.248Z,0.00
2022-10-18T01:08:16.228Z,0.00
2022-10-18T01:09:16.210Z,0.00
2022-10-18T01:10:16.201Z,0.00
2022-10-18T01:11:16.169Z,0.00
2022-10-18T01:12:16.162Z,0.00
2022-10-18T01:13:16.141Z,0.00
2022-10-18T01:14:16.116Z,0.00
2022-10-18T01:15:16.092Z,0.00
2022-10-18T01:16:16.082Z,0.00
2022-10-18T01:17:16.055Z,0.00
2022-10-18T01:18:16.036Z,0.00
2022-10-18T01:19:16.015Z,0.00
2022-10-18T01:20:16.001Z,0.00
2022-10-18T01:21:15.979Z,0.00
2022-10-18T01:22:15.959Z,0.00
2022-10-18T01:23:15.942Z,0.00
2022-10-18T01:24:15.976Z,0.00
2022-10-18T01:25:15.900Z,0.00
2022-10-18T01:26:15.878Z,0.00
2022-10-18T01:27:15.872Z,0.00
2022-10-18T01:28:15.839Z,0.00
2022-10-18T01:29:15.820Z,0.00
2022-10-18T01:30:15.796Z,0.00
2022-10-18T01:31:15.791Z,0.00
2022-10-18T01:32:15.761Z,0.00
2022-10-18T01:33:15.748Z,0.00
2022-10-18T01:34:15.735Z,0.00
2022-10-18T01:35:15.706Z,0.00
2022-10-18T01:36:15.691Z,0.00
2022-10-18T01:37:15.665Z,0.00
2022-10-18T01:38:15.647Z,0.00
2022-10-18T01:39:15.625Z,0.00
2022-10-18T01:40:15.610Z,0.00
2022-10-18T01:41:16.014Z,0.00
2022-10-18T01:42:15.566Z,0.00
2022-10-18T01:43:15.547Z,0.00
2022-10-18T01:44:15.555Z,0.00
2022-10-18T01:45:15.516Z,0.00
2022-10-18T01:46:15.493Z,0.00
2022-10-18T01:47:15.475Z,0.00
2022-10-18T01:48:15.492Z,0.00
2022-10-18T01:49:15.432Z,0.00
2022-10-18T01:50:15.417Z,0.00
2022-10-18T01:51:15.399Z,0.00
2022-10-18T01:52:15.393Z,0.00
2022-10-18T01:53:15.386Z,0.00
2022-10-18T01:54:15.352Z,0.00
2022-10-18T01:55:15.322Z,0.00
2022-10-18T01:56:15.301Z,0.00
2022-10-18T01:57:15.281Z,0.00
2022-10-18T01:58:15.261Z,0.00
2022-10-18T01:59:15.244Z,0.00
2022-10-18T02:00:15.704Z,0.00
2022-10-18T02:01:15.239Z,0.00
2022-10-18T02:02:15.230Z,0.00
2022-10-18T02:03:15.161Z,0.00
2022-10-18T02:04:15.149Z,0.00
2022-10-18T02:05:15.128Z,0.00
2022-10-18T02:06:15.107Z,0.00
2022-10-18T02:07:15.090Z,0.00
2022-10-18T02:08:22.738Z,0.00
2022-10-18T02:09:15.044Z,0.00
2022-10-18T02:11:15.009Z,0.00
2022-10-18T02:12:14.995Z,0.00
2022-10-18T02:13:14.968Z,0.00
2022-10-18T02:14:14.942Z,0.00
2022-10-18T02:15:14.933Z,0.00
2022-10-18T02:16:14.908Z,0.00
2022-10-18T02:17:14.891Z,0.00
2022-10-18T02:18:14.864Z,0.00
2022-10-18T02:19:14.981Z,0.00
2022-10-18T02:20:14.828Z,0.00
2022-10-18T02:21:14.820Z,0.00
2022-10-18T02:22:14.790Z,0.00
2022-10-18T02:23:14.772Z,0.00
2022-10-18T02:24:14.750Z,0.00
2022-10-18T02:25:14.734Z,0.00
2022-10-18T02:26:14.716Z,0.00
2022-10-18T02:27:14.696Z,0.00
2022-10-18T02:28:14.740Z,0.00
2022-10-18T02:29:14.719Z,0.00
2022-10-18T02:30:14.693Z,0.00
2022-10-18T02:31:14.609Z,0.00
2022-10-18T02:32:14.592Z,0.00
2022-10-18T02:33:14.585Z,0.00
2022-10-18T02:34:14.605Z,0.00
2022-10-18T02:35:14.541Z,0.00
2022-10-18T02:36:14.516Z,0.00
2022-10-18T02:37:14.559Z,0.00
2022-10-18T02:38:14.485Z,0.00
2022-10-18T02:39:14.463Z,0.00
2022-10-18T02:40:14.438Z,0.00
2022-10-18T02:41:14.437Z,0.00
2022-10-18T02:42:14.396Z,0.00
2022-10-18T02:43:14.385Z,0.00
2022-10-18T02:44:14.464Z,0.00
2022-10-18T02:45:14.361Z,0.00
2022-10-18T02:46:14.345Z,0.00
2022-10-18T02:47:14.303Z,0.00
2022-10-18T02:48:14.285Z,0.00
2022-10-18T02:49:14.279Z,0.00
2022-10-18T02:50:14.245Z,0.00
2022-10-18T02:51:14.252Z,0.00
2022-10-18T02:52:14.205Z,0.00
2022-10-18T02:53:14.190Z,0.00
2022-10-18T02:54:14.165Z,0.00
2022-10-18T02:55:14.156Z,0.00
2022-10-18T02:56:14.143Z,0.00
2022-10-18T02:57:14.110Z,0.00
2022-10-18T02:58:14.101Z,0.00
2022-10-18T02:59:14.085Z,0.00
2022-10-18T03:00:14.051Z,0.00
2022-10-18T03:01:14.083Z,0.00
2022-10-18T03:02:14.016Z,0.00
2022-10-18T03:03:13.998Z,0.00
2022-10-18T03:04:13.978Z,0.00
2022-10-18T03:05:13.957Z,0.00
2022-10-18T03:06:13.937Z,0.00
2022-10-18T03:07:13.918Z,0.00
2022-10-18T03:08:13.902Z,0.00
2022-10-18T03:09:13.887Z,0.00
2022-10-18T03:10:13.861Z,0.00
2022-10-18T03:11:13.843Z,0.00
2022-10-18T03:12:13.828Z,0.00
2022-10-18T03:13:13.804Z,0.00
2022-10-18T03:14:13.780Z,0.00
2022-10-18T03:15:13.766Z,0.00
2022-10-18T03:16:13.744Z,0.00
2022-10-18T03:17:13.725Z,0.00
2022-10-18T03:18:13.704Z,0.00
2022-10-18T03:19:13.695Z,0.00
2022-10-18T03:20:13.667Z,0.00
2022-10-18T03:21:13.656Z,0.00
2022-10-18T03:22:13.624Z,0.00
2022-10-18T03:23:13.608Z,0.00
2022-10-18T03:24:13.590Z,0.00
2022-10-18T03:25:13.583Z,0.00
2022-10-18T03:26:13.554Z,0.00
2022-10-18T03:27:13.535Z,0.00
2022-10-18T03:28:13.533Z,0.00
2022-10-18T03:29:13.491Z,0.00
2022-10-18T03:30:13.475Z,0.00
2022-10-18T03:31:13.456Z,0.00
2022-10-18T03:32:13.438Z,0.00
2022-10-18T03:33:13.416Z,0.00
2022-10-18T03:34:13.392Z,0.00
2022-10-18T03:35:13.384Z,0.00
2022-10-18T03:36:13.357Z,0.00
2022-10-18T03:37:13.340Z,0.00
2022-10-18T03:38:13.343Z,0.00
2022-10-18T03:39:13.302Z,0.00
2022-10-18T03:40:13.277Z,0.00
2022-10-18T03:41:13.257Z,0.00
2022-10-18T03:42:13.240Z,0.00
2022-10-18T03:43:13.228Z,0.00
2022-10-18T03:44:13.208Z,0.00
2022-10-18T03:45:13.192Z,0.00
2022-10-18T03:46:13.158Z,0.00
2022-10-18T03:47:13.143Z,0.00
2022-10-18T03:48:13.125Z,0.00
2022-10-18T03:49:13.104Z,0.00
2022-10-18T03:50:13.127Z,0.00
2022-10-18T03:51:13.081Z,0.00
2022-10-18T03:52:13.077Z,0.00
2022-10-18T03:53:13.027Z,0.00
2022-10-18T03:54:13.044Z,0.00
2022-10-18T03:55:12.999Z,0.00
2022-10-18T03:56:12.979Z,0.00
2022-10-18T03:57:12.952Z,0.00
2022-10-18T03:58:12.934Z,0.00
2022-10-18T03:59:12.913Z,0.00
2022-10-18T04:00:12.910Z,0.00
2022-10-18T04:01:12.920Z,0.00
2022-10-18T04:02:12.918Z,0.00
2022-10-18T04:03:12.835Z,0.00
2022-10-18T04:04:12.814Z,0.00
2022-10-18T04:05:12.796Z,0.00
2022-10-18T04:06:12.776Z,0.00
2022-10-18T04:07:12.760Z,0.00
2022-10-18T04:08:12.734Z,0.00
2022-10-18T04:09:12.720Z,0.00
2022-10-18T04:10:12.700Z,0.00
2022-10-18T04:11:12.682Z,0.00
2022-10-18T04:12:12.662Z,0.00
2022-10-18T04:13:12.644Z,0.00
2022-10-18T04:14:12.622Z,0.00
2022-10-18T04:15:12.615Z,0.00
2022-10-18T04:16:12.602Z,0.00
2022-10-18T04:17:12.567Z,0.00
2022-10-18T04:18:12.547Z,0.00
2022-10-18T04:19:12.530Z,0.00
2022-10-18T04:20:12.520Z,0.00
2022-10-18T04:21:12.491Z,0.00
2022-10-18T04:22:12.468Z,0.00
2022-10-18T04:23:12.452Z,0.00
2022-10-18T04:24:12.431Z,0.00
2022-10-18T04:25:12.418Z,0.00
2022-10-18T04:26:12.392Z,0.00
2022-10-18T04:27:12.383Z,0.00
2022-10-18T04:28:12.357Z,0.00
2022-10-18T04:29:12.396Z,0.00
2022-10-18T04:30:12.315Z,0.00
2022-10-18T04:31:12.300Z,0.00
2022-10-18T04:32:12.280Z,0.00
2022-10-18T04:33:12.259Z,0.00
2022-10-18T04:34:12.240Z,0.00
2022-10-18T04:35:12.235Z,0.00
2022-10-18T04:36:12.212Z,0.00
2022-10-18T04:37:12.185Z,0.00
2022-10-18T04:38:12.168Z,0.00
2022-10-18T04:39:12.157Z,0.00
2022-10-18T04:40:12.127Z,0.00
2022-10-18T04:41:12.109Z,0.00
2022-10-18T04:42:12.086Z,0.00
2022-10-18T04:43:12.076Z,0.00
2022-10-18T04:44:12.051Z,0.00
2022-10-18T04:45:12.031Z,0.00
2022-10-18T04:46:12.007Z,0.00
2022-10-18T04:47:11.992Z,0.00
2022-10-18T04:48:11.976Z,0.00
2022-10-18T04:49:11.963Z,0.00
2022-10-18T04:50:11.934Z,0.00
2022-10-18T04:51:11.924Z,0.00
2022-10-18T04:52:11.896Z,0.00
2022-10-18T04:53:11.879Z,0.00
2022-10-18T04:54:11.864Z,0.00
2022-10-18T04:55:11.844Z,0.00
2022-10-18T04:56:11.833Z,0.00
2022-10-18T04:57:11.800Z,0.00
2022-10-18T04:58:11.782Z,0.00
2022-10-18T04:59:11.774Z,0.00
2022-10-18T05:00:11.743Z,0.00
2022-10-18T05:01:11.750Z,0.00
2022-10-18T05:02:11.723Z,0.00
2022-10-18T05:03:11.696Z,0.00
2022-10-18T05:04:11.679Z,0.00
2022-10-18T05:05:14.014Z,0.00
2022-10-18T05:06:11.629Z,0.00
2022-10-18T05:07:11.632Z,0.00
2022-10-18T05:08:11.608Z,0.00
2022-10-18T05:09:11.571Z,0.00
2022-10-18T05:10:11.551Z,0.00
2022-10-18T05:11:11.543Z,0.00
2022-10-18T05:12:11.514Z,0.00
2022-10-18T05:13:11.492Z,0.00
2022-10-18T05:14:11.477Z,0.00
2022-10-18T05:15:11.459Z,0.00
2022-10-18T05:16:11.440Z,0.00
2022-10-18T05:17:11.420Z,0.00
2022-10-18T05:18:11.416Z,0.00
2022-10-18T05:19:11.388Z,0.00
2022-10-18T05:20:11.409Z,0.00
2022-10-18T05:21:11.349Z,0.00
2022-10-18T05:22:11.325Z,0.00
2022-10-18T05:23:11.303Z,0.00
2022-10-18T05:24:11.285Z,0.00
2022-10-18T05:25:11.273Z,0.00
2022-10-18T05:26:11.247Z,0.00
2022-10-18T05:27:11.230Z,0.00
2022-10-18T05:28:34.743Z,0.00
2022-10-18T05:29:11.278Z,0.00
2022-10-18T05:30:11.175Z,0.00
2022-10-18T05:31:11.150Z,0.00
2022-10-18T05:32:11.131Z,0.00
2022-10-18T05:33:11.142Z,0.00
2022-10-18T05:34:11.106Z,0.00
2022-10-18T05:35:11.089Z,0.00
2022-10-18T05:36:11.066Z,0.00
2022-10-18T05:37:11.062Z,0.00
2022-10-18T05:38:11.027Z,0.00
2022-10-18T05:39:11.003Z,0.00
2022-10-18T05:40:10.980Z,0.00
2022-10-18T05:41:10.993Z,0.00
2022-10-18T05:42:10.945Z,0.00
2022-10-18T05:43:10.924Z,0.00
2022-10-18T05:44:10.901Z,0.00
2022-10-18T05:45:10.884Z,0.00
2022-10-18T05:46:14.996Z,0.00
2022-10-18T05:47:10.854Z,5.63
2022-10-18T05:48:10.840Z,5.63
2022-10-18T05:49:10.811Z,5.63
2022-10-18T05:50:10.786Z,5.63
2022-10-18T05:51:10.770Z,5.63
2022-10-18T05:52:10.761Z,5.63
2022-10-18T05:53:18.516Z,5.63
2022-10-18T05:54:10.713Z,11.25
2022-10-18T05:55:10.691Z,11.25
2022-10-18T05:56:10.684Z,11.25
2022-10-18T05:57:10.649Z,11.25
2022-10-18T05:58:10.633Z,11.25
2022-10-18T05:59:10.615Z,11.25
2022-10-18T06:00:10.597Z,11.25
2022-10-18T06:01:10.578Z,11.25
2022-10-18T06:02:10.649Z,11.25
2022-10-18T06:03:10.537Z,11.25
2022-10-18T06:04:10.522Z,16.88
2022-10-18T06:05:10.499Z,16.88
2022-10-18T06:06:10.481Z,16.88
2022-10-18T06:07:10.486Z,16.88
2022-10-18T06:08:10.530Z,22.50
2022-10-18T06:09:10.443Z,22.50
2022-10-18T06:10:10.401Z,22.50
2022-10-18T06:11:10.412Z,28.13
2022-10-18T06:12:10.369Z,28.13
2022-10-18T06:13:10.358Z,33.75
2022-10-18T06:14:10.330Z,33.75
2022-10-18T06:15:10.308Z,39.38
2022-10-18T06:16:10.321Z,45.00
2022-10-18T06:17:10.274Z,45.00
2022-10-18T06:18:10.253Z,45.00
2022-10-18T06:19:10.240Z,45.00
2022-10-18T06:20:10.215Z,50.63
2022-10-18T06:21:10.216Z,50.63
2022-10-18T06:22:10.177Z,56.25
2022-10-18T06:23:10.152Z,61.88
2022-10-18T06:24:10.145Z,67.50
2022-10-18T06:25:10.123Z,73.13
2022-10-18T06:26:10.095Z,78.75
2022-10-18T06:27:10.077Z,84.38
2022-10-18T06:28:11.512Z,84.38
2022-10-18T06:29:10.091Z,84.38
2022-10-18T06:30:10.026Z,84.38
2022-10-18T06:31:10.011Z,78.75
2022-10-18T06:32:09.985Z,78.75
2022-10-18T06:33:09.961Z,73.13
2022-10-18T06:34:09.945Z,73.13
2022-10-18T06:35:09.923Z,67.50
2022-10-18T06:36:09.909Z,61.88
2022-10-18T06:37:09.904Z,56.25
2022-10-18T06:38:09.871Z,56.25
2022-10-18T06:39:09.872Z,61.88
2022-10-18T06:40:09.842Z,73.13
2022-10-18T06:41:09.814Z,78.75
2022-10-18T06:42:09.805Z,78.75
2022-10-18T06:43:20.723Z,84.38
2022-10-18T06:44:09.761Z,78.75
2022-10-18T06:45:09.737Z,61.88
2022-10-18T06:46:09.743Z,50.63
2022-10-18T06:47:09.693Z,56.25
2022-10-18T06:48:09.801Z,61.88
2022-10-18T06:49:09.682Z,67.50
2022-10-18T06:50:09.692Z,78.75
2022-10-18T06:51:09.640Z,84.38
2022-10-18T06:52:09.618Z,84.38
2022-10-18T06:53:09.596Z,84.38
2022-10-18T06:54:18.487Z,84.38
2022-10-18T06:55:09.572Z,84.38
2022-10-18T06:56:09.531Z,84.38
2022-10-18T06:57:09.527Z,90.00
2022-10-18T06:58:09.507Z,90.00
2022-10-18T06:59:09.502Z,101.25
2022-10-18T07:00:09.460Z,106.88
2022-10-18T07:01:09.519Z,112.50
2022-10-18T07:02:09.434Z,118.13
2022-10-18T07:03:09.404Z,112.50
2022-10-18T07:04:09.387Z,95.63
2022-10-18T07:05:09.376Z,78.75
2022-10-18T07:06:09.357Z,67.50
2022-10-18T07:07:09.340Z,61.88
2022-10-18T07:08:09.309Z,67.50
2022-10-18T07:09:09.302Z,67.50
2022-10-18T07:10:12.642Z,67.50
2022-10-18T07:11:09.261Z,61.88
2022-10-18T07:12:09.244Z,50.63
2022-10-18T07:13:33.030Z,45.00
2022-10-18T07:14:12.524Z,45.00
2022-10-18T07:15:09.661Z,50.63
2022-10-18T07:16:10.656Z,56.25
2022-10-18T07:17:09.147Z,67.50
2022-10-18T07:18:09.132Z,78.75
2022-10-18T07:19:09.122Z,84.38
2022-10-18T07:20:09.090Z,84.38
2022-10-18T07:21:09.078Z,84.38
2022-10-18T07:22:09.053Z,90.00
2022-10-18T07:23:09.041Z,95.63
2022-10-18T07:24:09.024Z,101.25
2022-10-18T07:25:09.020Z,106.88
2022-10-18T07:26:08.988Z,123.75
2022-10-18T07:27:08.978Z,135.00
2022-10-18T07:28:08.963Z,140.63
2022-10-18T07:29:09.035Z,135.00
2022-10-18T07:30:08.913Z,123.75
2022-10-18T07:31:08.945Z,106.88
2022-10-18T07:32:08.882Z,101.25
2022-10-18T07:33:08.857Z,101.25
2022-10-18T07:34:08.840Z,95.63
2022-10-18T07:35:08.875Z,95.63
2022-10-18T07:36:08.799Z,90.00
2022-10-18T07:37:08.783Z,95.63
2022-10-18T07:38:08.768Z,101.25
2022-10-18T07:39:08.746Z,106.88
2022-10-18T07:40:08.731Z,112.50
2022-10-18T07:41:08.711Z,112.50
2022-10-18T07:42:08.703Z,106.88
2022-10-18T07:43:11.984Z,101.25
2022-10-18T07:44:08.661Z,101.25
2022-10-18T07:45:08.645Z,101.25
2022-10-18T07:46:08.646Z,101.25
2022-10-18T07:47:08.626Z,101.25
2022-10-18T07:48:08.588Z,90.00
2022-10-18T07:49:08.569Z,84.38
2022-10-18T07:50:08.556Z,78.75
2022-10-18T07:51:08.537Z,78.75
2022-10-18T07:52:08.526Z,90.00
2022-10-18T07:53:08.500Z,106.88
2022-10-18T07:54:08.492Z,129.38
2022-10-18T07:55:08.473Z,151.88
2022-10-18T07:56:09.576Z,168.75
2022-10-18T07:57:08.439Z,202.50
2022-10-18T07:58:08.416Z,213.75
2022-10-18T07:59:08.397Z,225.00
2022-10-18T08:00:08.376Z,225.00
2022-10-18T08:01:08.448Z,225.00
2022-10-18T08:02:08.346Z,230.63
2022-10-18T08:03:08.335Z,230.63
2022-10-18T08:04:11.584Z,230.63
2022-10-18T08:05:08.290Z,230.63
2022-10-18T08:06:08.281Z,219.38
2022-10-18T08:07:08.254Z,219.38
2022-10-18T08:08:08.327Z,230.63
2022-10-18T08:09:08.229Z,258.75
2022-10-18T08:10:08.214Z,286.88
2022-10-18T08:11:08.203Z,326.25
2022-10-18T08:12:08.179Z,371.25
2022-10-18T08:13:08.148Z,382.50
2022-10-18T08:14:08.129Z,382.50
2022-10-18T08:15:08.116Z,421.88
2022-10-18T08:16:08.111Z,466.88
2022-10-18T08:17:08.083Z,506.25
2022-10-18T08:18:08.068Z,545.63
2022-10-18T08:19:08.064Z,585.00
2022-10-18T08:20:12.200Z,573.75
2022-10-18T08:21:08.016Z,534.38
2022-10-18T08:22:07.999Z,495.00
2022-10-18T08:23:07.984Z,461.25
2022-10-18T08:24:07.969Z,421.88
2022-10-18T08:25:07.964Z,382.50
2022-10-18T08:26:07.936Z,348.75
2022-10-18T08:27:07.921Z,326.25
2022-10-18T08:28:07.924Z,315.00
2022-10-18T08:29:23.012Z,303.75
2022-10-18T08:30:07.878Z,298.13
2022-10-18T08:31:07.866Z,292.50
2022-10-18T08:32:07.851Z,281.25
2022-10-18T08:33:07.823Z,281.25
2022-10-18T08:34:07.820Z,286.88
2022-10-18T08:35:08.685Z,292.50
2022-10-18T08:36:07.783Z,292.50
2022-10-18T08:37:07.764Z,309.38
2022-10-18T08:38:07.752Z,331.88
2022-10-18T08:39:07.734Z,348.75
2022-10-18T08:40:07.721Z,348.75
2022-10-18T08:41:07.711Z,320.63
2022-10-18T08:42:07.688Z,286.88
2022-10-18T08:43:07.681Z,258.75
2022-10-18T08:44:07.773Z,270.00
2022-10-18T08:45:12.924Z,241.88
2022-10-18T08:46:07.629Z,264.38
2022-10-18T08:47:07.607Z,241.88
2022-10-18T08:48:07.600Z,253.13
2022-10-18T08:49:07.594Z,298.13
2022-10-18T08:50:07.612Z,275.63
2022-10-18T08:51:07.561Z,270.00
2022-10-18T08:52:07.537Z,258.75
2022-10-18T08:53:07.525Z,270.00
2022-10-18T08:54:07.513Z,286.88
2022-10-18T08:55:07.490Z,303.75
2022-10-18T08:56:07.619Z,320.63
2022-10-18T08:57:07.465Z,326.25
2022-10-18T08:58:07.449Z,343.13
2022-10-18T08:59:07.428Z,354.38
2022-10-18T09:00:07.413Z,365.63
2022-10-18T09:01:07.394Z,393.75
2022-10-18T09:02:07.382Z,438.75
2022-10-18T09:03:07.450Z,489.38
2022-10-18T09:04:07.352Z,534.38
2022-10-18T09:05:07.341Z,607.50
2022-10-18T09:06:07.321Z,652.50
2022-10-18T09:07:07.316Z,652.50
2022-10-18T09:08:07.305Z,635.63
2022-10-18T09:09:07.332Z,663.75
2022-10-18T09:10:07.343Z,658.13
2022-10-18T09:11:07.252Z,658.13
2022-10-18T09:12:07.252Z,635.63
2022-10-18T09:13:07.224Z,601.88
2022-10-18T09:14:07.263Z,585.00
2022-10-18T09:15:07.286Z,590.63
2022-10-18T09:16:07.215Z,607.50
2022-10-18T09:17:07.162Z,624.38
2022-10-18T09:18:07.174Z,646.88
2022-10-18T09:19:07.144Z,658.13
2022-10-18T09:20:07.125Z,675.00
2022-10-18T09:21:07.108Z,697.50
2022-10-18T09:22:08.978Z,675.00
2022-10-18T09:23:07.082Z,652.50
2022-10-18T09:24:07.080Z,658.13
2022-10-18T09:25:07.058Z,669.38
2022-10-18T09:26:07.059Z,680.63
2022-10-18T09:27:07.031Z,669.38
2022-10-18T09:28:07.038Z,686.25
2022-10-18T09:29:07.221Z,753.75
2022-10-18T09:30:06.995Z,646.88
2022-10-18T09:31:06.972Z,613.13
2022-10-18T09:32:06.966Z,607.50
2022-10-18T09:33:06.948Z,601.88
2022-10-18T09:34:06.939Z,680.63
2022-10-18T09:35:06.929Z,641.25
2022-10-18T09:36:06.920Z,585.00
2022-10-18T09:37:06.899Z,568.13
2022-10-18T09:38:06.949Z,556.88
2022-10-18T09:39:06.876Z,545.63
2022-10-18T09:40:06.869Z,534.38
2022-10-18T09:41:06.852Z,523.13
2022-10-18T09:42:06.837Z,506.25
2022-10-18T09:43:06.838Z,489.38
2022-10-18T09:44:06.811Z,461.25
2022-10-18T09:45:06.801Z,433.13
2022-10-18T09:46:06.783Z,427.50
2022-10-18T09:47:06.772Z,421.88
2022-10-18T09:48:06.870Z,410.63
2022-10-18T09:49:06.748Z,399.38
2022-10-18T09:50:06.733Z,393.75
2022-10-18T09:51:06.723Z,399.38
2022-10-18T09:52:06.717Z,393.75
2022-10-18T09:53:06.699Z,360.00
2022-10-18T09:54:06.693Z,326.25
2022-10-18T09:55:06.677Z,315.00
2022-10-18T09:56:06.658Z,315.00
2022-10-18T09:57:06.651Z,303.75
2022-10-18T09:58:06.691Z,298.13
2022-10-18T09:59:06.623Z,275.63
2022-10-18T10:00:06.612Z,247.50
2022-10-18T10:01:06.604Z,236.25
2022-10-18T10:02:06.632Z,219.38
2022-10-18T10:03:06.563Z,213.75
2022-10-18T10:04:06.566Z,213.75
2022-10-18T10:05:06.580Z,213.75
2022-10-18T10:06:06.535Z,191.25
2022-10-18T10:07:06.515Z,163.13
2022-10-18T10:08:06.520Z,135.00
2022-10-18T10:09:06.497Z,129.38
2022-10-18T10:10:06.463Z,129.38
2022-10-18T10:11:06.458Z,146.25
2022-10-18T10:12:06.438Z,180.00
2022-10-18T10:13:06.432Z,219.38
2022-10-18T10:14:06.480Z,258.75
2022-10-18T10:15:06.414Z,281.25
2022-10-18T10:16:06.376Z,286.88
2022-10-18T10:17:06.387Z,247.50
2022-10-18T10:18:06.393Z,247.50
2022-10-18T10:19:06.349Z,281.25
2022-10-18T10:20:06.317Z,354.38
2022-10-18T10:21:06.304Z,421.88
2022-10-18T10:22:06.306Z,489.38
2022-10-18T10:23:06.320Z,511.88
2022-10-18T10:24:06.272Z,478.13
2022-10-18T10:25:06.248Z,438.75
2022-10-18T10:26:06.239Z,421.88
2022-10-18T10:27:06.246Z,388.13
2022-10-18T10:28:06.265Z,365.63
2022-10-18T10:29:13.227Z,337.50
2022-10-18T10:30:07.437Z,309.38
2022-10-18T10:31:06.157Z,309.38
2022-10-18T10:32:06.152Z,337.50
2022-10-18T10:33:06.146Z,365.63
2022-10-18T10:34:06.114Z,365.63
2022-10-18T10:35:07.913Z,393.75
2022-10-18T10:36:06.103Z,382.50
2022-10-18T10:37:06.087Z,348.75
2022-10-18T10:38:06.090Z,343.13
2022-10-18T10:39:06.040Z,382.50
2022-10-18T10:40:17.665Z,393.75
2022-10-18T10:41:06.041Z,399.38
2022-10-18T10:42:09.202Z,433.13
2022-10-18T10:43:18.467Z,427.50
2022-10-18T10:44:05.976Z,416.25
2022-10-18T10:45:05.958Z,433.13
2022-10-18T10:46:05.945Z,433.13
2022-10-18T10:47:05.923Z,399.38
2022-10-18T10:48:05.926Z,388.13
2022-10-18T10:49:39.262Z,399.38
2022-10-18T10:50:05.877Z,399.38
2022-10-18T10:51:05.869Z,450.00
2022-10-18T10:52:25.868Z,528.75
2022-10-18T10:53:05.835Z,590.63
2022-10-18T10:54:05.821Z,607.50
2022-10-18T10:55:23.325Z,601.88
2022-10-18T10:56:05.796Z,596.25
2022-10-18T10:57:05.779Z,590.63
2022-10-18T10:58:05.765Z,596.25
2022-10-18T10:59:05.846Z,590.63
2022-10-18T11:00:05.761Z,573.75
2022-10-18T11:01:09.077Z,562.50
2022-10-18T11:02:05.714Z,573.75
2022-10-18T11:03:23.771Z,534.38
2022-10-18T11:04:05.715Z,511.88
2022-10-18T11:05:05.679Z,568.13
2022-10-18T11:06:05.655Z,534.38
2022-10-18T11:07:05.641Z,551.25
2022-10-18T11:08:05.626Z,579.38
2022-10-18T11:09:05.608Z,562.50
2022-10-18T11:10:05.601Z,596.25
2022-10-18T11:11:05.580Z,630.00
2022-10-18T11:12:05.568Z,635.63
2022-10-18T11:13:05.555Z,601.88
2022-10-18T11:14:25.727Z,528.75
2022-10-18T11:15:05.547Z,455.63
2022-10-18T11:16:05.514Z,438.75
2022-10-18T11:17:07.944Z,450.00
2022-10-18T11:18:05.489Z,433.13
2022-10-18T11:19:05.502Z,416.25
2022-10-18T11:20:05.461Z,427.50
2022-10-18T11:21:05.464Z,461.25
2022-10-18T11:22:05.458Z,433.13
2022-10-18T11:23:05.420Z,393.75
2022-10-18T11:24:05.418Z,376.88
2022-10-18T11:25:05.398Z,343.13
2022-10-18T11:26:05.379Z,320.63
2022-10-18T11:27:05.362Z,309.38
2022-10-18T11:28:05.359Z,292.50
2022-10-18T11:29:05.441Z,270.00
2022-10-18T11:30:05.318Z,258.75
2022-10-18T11:31:05.317Z,253.13
2022-10-18T11:32:05.328Z,264.38
2022-10-18T11:33:05.274Z,298.13
2022-10-18T11:34:09.866Z,315.00
2022-10-18T11:35:05.270Z,337.50
2022-10-18T11:36:05.243Z,365.63
2022-10-18T11:37:34.698Z,388.13
2022-10-18T11:38:05.211Z,410.63
2022-10-18T11:39:05.198Z,405.00
2022-10-18T11:40:05.172Z,376.88
2022-10-18T11:41:05.160Z,331.88
2022-10-18T11:42:05.139Z,292.50
2022-10-18T11:43:05.126Z,253.13
2022-10-18T11:44:05.118Z,213.75
2022-10-18T11:45:05.105Z,208.13
2022-10-18T11:46:05.583Z,230.63
2022-10-18T11:47:05.157Z,236.25
2022-10-18T11:48:05.219Z,264.38
2022-10-18T11:49:05.256Z,281.25
2022-10-18T11:50:05.086Z,303.75
2022-10-18T11:51:05.085Z,309.38
2022-10-18T11:52:09.139Z,292.50
2022-10-18T11:53:05.097Z,264.38
2022-10-18T11:54:04.954Z,230.63
2022-10-18T11:55:04.948Z,202.50
2022-10-18T11:56:04.960Z,168.75
2022-10-18T11:57:04.931Z,151.88
2022-10-18T11:58:04.912Z,135.00
2022-10-18T11:59:04.883Z,118.13
2022-10-18T12:00:04.868Z,106.88
2022-10-18T12:01:04.863Z,95.63
2022-10-18T12:02:04.839Z,78.75
2022-10-18T12:03:04.917Z,67.50
2022-10-18T12:04:04.807Z,56.25
2022-10-18T12:05:22.543Z,56.25
2022-10-18T12:06:04.793Z,56.25
2022-10-18T12:07:04.755Z,56.25
2022-10-18T12:08:04.743Z,61.88
2022-10-18T12:09:04.732Z,73.13
2022-10-18T12:10:04.715Z,84.38
2022-10-18T12:11:06.094Z,90.00
2022-10-18T12:12:04.677Z,101.25
2022-10-18T12:13:04.670Z,101.25
2022-10-18T12:14:04.643Z,101.25
2022-10-18T12:15:04.625Z,112.50
2022-10-18T12:16:04.615Z,140.63
2022-10-18T12:17:35.896Z,157.50
2022-10-18T12:18:04.575Z,157.50
2022-10-18T12:19:04.567Z,146.25
2022-10-18T12:20:04.537Z,118.13
2022-10-18T12:21:04.525Z,106.88
2022-10-18T12:22:04.662Z,106.88
2022-10-18T12:23:04.501Z,123.75
2022-10-18T12:24:04.477Z,151.88
2022-10-18T12:25:04.459Z,191.25
2022-10-18T12:26:04.445Z,230.63
2022-10-18T12:27:04.426Z,258.75
2022-10-18T12:28:04.409Z,286.88
2022-10-18T12:29:04.454Z,286.88
2022-10-18T12:30:04.401Z,241.88
2022-10-18T12:31:04.367Z,208.13
2022-10-18T12:32:04.359Z,202.50
2022-10-18T12:33:23.508Z,213.75
2022-10-18T12:34:04.306Z,247.50
2022-10-18T12:35:04.325Z,281.25
2022-10-18T12:36:04.303Z,298.13
2022-10-18T12:38:04.251Z,326.25
2022-10-18T12:39:04.243Z,343.13
2022-10-18T12:40:13.220Z,371.25
2022-10-18T12:41:04.209Z,393.75
2022-10-18T12:42:04.178Z,427.50
2022-10-18T12:43:04.162Z,450.00
2022-10-18T12:44:04.157Z,433.13
2022-10-18T12:45:04.152Z,382.50
2022-10-18T12:46:04.143Z,320.63
2022-10-18T12:47:04.106Z,286.88
2022-10-18T12:48:04.092Z,275.63
2022-10-18T12:49:04.067Z,281.25
2022-10-18T12:50:04.069Z,298.13
2022-10-18T12:51:04.049Z,320.63
2022-10-18T12:52:04.032Z,348.75
2022-10-18T12:53:04.007Z,371.25
2022-10-18T12:54:03.997Z,365.63
2022-10-18T12:55:03.970Z,337.50